sensor_id;sensor_type;location;lat;lon;timestamp;P1;durP1;ratioP1;P2;durP2;ratioP2
14907;SDS011;7545;52.092;7.006;2024-01-30T00:00:54;9.23;;;6.60;;
14907;SDS011;7545;52.092;7.006;2024-01-30T00:03:20;10.33;;;7.77;;
14907;SDS011;7545;52.092;7.006;2024-01-30T00:05:45;9.97;;;6.90;;
14907;SDS011;7545;52.092;7.006;2024-01-30T00:08:11;9.53;;;7.00;;
14907;SDS011;7545;52.092;7.006;2024-01-30T00:10:37;8.77;;;6.00;;
14907;SDS011;7545;52.092;7.006;2024-01-30T00:13:02;8.17;;;6.20;;
14907;SDS011;7545;52.092;7.006;2024-01-30T00:15:28;10.10;;;6.90;;
14907;SDS011;7545;52.092;7.006;2024-01-30T00:17:53;11.63;;;6.80;;
14907;SDS011;7545;52.092;7.006;2024-01-30T00:20:20;8.70;;;6.57;;
14907;SDS011;7545;52.092;7.006;2024-01-30T00:22:45;10.10;;;6.63;;
14907;SDS011;7545;52.092;7.006;2024-01-30T00:25:11;10.17;;;6.13;;
14907;SDS011;7545;52.092;7.006;2024-01-30T00:27:36;9.93;;;6.60;;
14907;SDS011;7545;52.092;7.006;2024-01-30T00:30:02;9.70;;;6.20;;
14907;SDS011;7545;52.092;7.006;2024-01-30T00:32:28;12.70;;;6.63;;
14907;SDS011;7545;52.092;7.006;2024-01-30T00:34:53;11.40;;;7.03;;
14907;SDS011;7545;52.092;7.006;2024-01-30T00:37:19;8.77;;;7.27;;
14907;SDS011;7545;52.092;7.006;2024-01-30T00:39:44;10.10;;;6.27;;
14907;SDS011;7545;52.092;7.006;2024-01-30T00:42:10;10.40;;;6.60;;
14907;SDS011;7545;52.092;7.006;2024-01-30T00:44:35;10.10;;;6.20;;
14907;SDS011;7545;52.092;7.006;2024-01-30T00:47:03;10.80;;;6.87;;
14907;SDS011;7545;52.092;7.006;2024-01-30T00:49:29;14.93;;;7.43;;
14907;SDS011;7545;52.092;7.006;2024-01-30T00:51:55;12.40;;;7.47;;
14907;SDS011;7545;52.092;7.006;2024-01-30T00:54:20;11.23;;;6.80;;
14907;SDS011;7545;52.092;7.006;2024-01-30T00:56:46;8.40;;;6.17;;
14907;SDS011;7545;52.092;7.006;2024-01-30T00:59:11;10.17;;;6.90;;
14907;SDS011;7545;52.092;7.006;2024-01-30T01:01:37;8.47;;;6.67;;
14907;SDS011;7545;52.092;7.006;2024-01-30T01:04:02;9.33;;;5.80;;
14907;SDS011;7545;52.092;7.006;2024-01-30T01:06:28;8.13;;;6.13;;
14907;SDS011;7545;52.092;7.006;2024-01-30T01:08:54;8.63;;;6.43;;
14907;SDS011;7545;52.092;7.006;2024-01-30T01:11:19;12.60;;;6.20;;
14907;SDS011;7545;52.092;7.006;2024-01-30T01:13:45;10.30;;;6.73;;
14907;SDS011;7545;52.092;7.006;2024-01-30T01:16:10;9.17;;;5.90;;
14907;SDS011;7545;52.092;7.006;2024-01-30T01:18:36;8.40;;;5.83;;
14907;SDS011;7545;52.092;7.006;2024-01-30T01:21:01;9.17;;;6.30;;
14907;SDS011;7545;52.092;7.006;2024-01-30T01:23:27;10.10;;;7.17;;
14907;SDS011;7545;52.092;7.006;2024-01-30T01:25:53;7.63;;;6.47;;
14907;SDS011;7545;52.092;7.006;2024-01-30T01:28:18;9.83;;;5.97;;
14907;SDS011;7545;52.092;7.006;2024-01-30T01:30:44;8.70;;;6.05;;
14907;SDS011;7545;52.092;7.006;2024-01-30T01:33:09;9.40;;;5.97;;
14907;SDS011;7545;52.092;7.006;2024-01-30T01:35:35;12.23;;;6.50;;
14907;SDS011;7545;52.092;7.006;2024-01-30T01:38:01;10.17;;;6.30;;
14907;SDS011;7545;52.092;7.006;2024-01-30T01:40:27;9.83;;;6.20;;
14907;SDS011;7545;52.092;7.006;2024-01-30T01:42:53;8.27;;;6.10;;
14907;SDS011;7545;52.092;7.006;2024-01-30T01:45:20;9.57;;;7.23;;
14907;SDS011;7545;52.092;7.006;2024-01-30T01:47:52;8.53;;;5.93;;
14907;SDS011;7545;52.092;7.006;2024-01-30T01:50:18;9.30;;;5.93;;
14907;SDS011;7545;52.092;7.006;2024-01-30T01:52:49;10.23;;;6.27;;
14907;SDS011;7545;52.092;7.006;2024-01-30T01:55:16;8.40;;;5.53;;
14907;SDS011;7545;52.092;7.006;2024-01-30T01:57:46;7.27;;;6.43;;
14907;SDS011;7545;52.092;7.006;2024-01-30T02:00:12;6.60;;;5.67;;
14907;SDS011;7545;52.092;7.006;2024-01-30T02:02:38;7.77;;;5.80;;
14907;SDS011;7545;52.092;7.006;2024-01-30T02:05:04;9.97;;;6.50;;
14907;SDS011;7545;52.092;7.006;2024-01-30T02:07:30;7.57;;;5.73;;
14907;SDS011;7545;52.092;7.006;2024-01-30T02:09:56;7.50;;;5.53;;
14907;SDS011;7545;52.092;7.006;2024-01-30T02:12:22;9.20;;;5.77;;
14907;SDS011;7545;52.092;7.006;2024-01-30T02:14:48;9.03;;;6.10;;
14907;SDS011;7545;52.092;7.006;2024-01-30T02:17:14;9.17;;;5.57;;
14907;SDS011;7545;52.092;7.006;2024-01-30T02:19:40;9.23;;;5.67;;
14907;SDS011;7545;52.092;7.006;2024-01-30T02:22:06;7.00;;;5.90;;
14907;SDS011;7545;52.092;7.006;2024-01-30T02:24:32;8.43;;;5.97;;
14907;SDS011;7545;52.092;7.006;2024-01-30T02:26:58;7.83;;;6.23;;
14907;SDS011;7545;52.092;7.006;2024-01-30T02:29:23;7.83;;;5.70;;
14907;SDS011;7545;52.092;7.006;2024-01-30T02:31:49;10.70;;;5.47;;
14907;SDS011;7545;52.092;7.006;2024-01-30T02:34:15;6.87;;;5.37;;
14907;SDS011;7545;52.092;7.006;2024-01-30T02:36:43;11.30;;;5.60;;
14907;SDS011;7545;52.092;7.006;2024-01-30T02:39:09;7.63;;;5.43;;
14907;SDS011;7545;52.092;7.006;2024-01-30T02:41:35;7.77;;;5.63;;
14907;SDS011;7545;52.092;7.006;2024-01-30T02:44:04;11.17;;;6.50;;
14907;SDS011;7545;52.092;7.006;2024-01-30T02:46:29;7.37;;;5.87;;
14907;SDS011;7545;52.092;7.006;2024-01-30T02:48:55;8.67;;;5.77;;
14907;SDS011;7545;52.092;7.006;2024-01-30T02:51:21;9.87;;;6.17;;
14907;SDS011;7545;52.092;7.006;2024-01-30T02:53:46;8.97;;;6.17;;
14907;SDS011;7545;52.092;7.006;2024-01-30T02:56:12;8.47;;;5.40;;
14907;SDS011;7545;52.092;7.006;2024-01-30T02:58:38;7.87;;;5.63;;
14907;SDS011;7545;52.092;7.006;2024-01-30T03:01:04;9.17;;;6.23;;
14907;SDS011;7545;52.092;7.006;2024-01-30T03:03:30;8.43;;;5.60;;
14907;SDS011;7545;52.092;7.006;2024-01-30T03:05:56;10.37;;;6.80;;
14907;SDS011;7545;52.092;7.006;2024-01-30T03:08:22;7.80;;;5.77;;
14907;SDS011;7545;52.092;7.006;2024-01-30T03:10:47;12.33;;;6.03;;
14907;SDS011;7545;52.092;7.006;2024-01-30T03:13:13;7.00;;;5.70;;
14907;SDS011;7545;52.092;7.006;2024-01-30T03:15:39;10.77;;;5.90;;
14907;SDS011;7545;52.092;7.006;2024-01-30T03:18:04;8.77;;;5.80;;
14907;SDS011;7545;52.092;7.006;2024-01-30T03:20:30;8.77;;;6.30;;
14907;SDS011;7545;52.092;7.006;2024-01-30T03:22:56;10.13;;;6.60;;
14907;SDS011;7545;52.092;7.006;2024-01-30T03:25:22;10.33;;;6.73;;
14907;SDS011;7545;52.092;7.006;2024-01-30T03:27:48;9.40;;;6.73;;
14907;SDS011;7545;52.092;7.006;2024-01-30T03:30:14;9.23;;;6.50;;
14907;SDS011;7545;52.092;7.006;2024-01-30T03:32:39;9.20;;;6.10;;
14907;SDS011;7545;52.092;7.006;2024-01-30T03:35:05;10.17;;;6.27;;
14907;SDS011;7545;52.092;7.006;2024-01-30T03:37:31;7.77;;;5.77;;
14907;SDS011;7545;52.092;7.006;2024-01-30T03:39:56;10.57;;;6.40;;
14907;SDS011;7545;52.092;7.006;2024-01-30T03:42:22;8.57;;;6.10;;
14907;SDS011;7545;52.092;7.006;2024-01-30T03:44:48;8.00;;;6.20;;
14907;SDS011;7545;52.092;7.006;2024-01-30T03:47:16;14.77;;;6.63;;
14907;SDS011;7545;52.092;7.006;2024-01-30T03:49:42;8.77;;;5.97;;
14907;SDS011;7545;52.092;7.006;2024-01-30T03:52:07;9.43;;;5.90;;
14907;SDS011;7545;52.092;7.006;2024-01-30T03:54:33;9.93;;;6.57;;
14907;SDS011;7545;52.092;7.006;2024-01-30T03:56:59;13.40;;;6.67;;
14907;SDS011;7545;52.092;7.006;2024-01-30T03:59:24;9.07;;;6.47;;
14907;SDS011;7545;52.092;7.006;2024-01-30T04:01:50;9.17;;;6.13;;
14907;SDS011;7545;52.092;7.006;2024-01-30T04:04:17;9.90;;;6.13;;
14907;SDS011;7545;52.092;7.006;2024-01-30T04:06:42;11.07;;;6.60;;
14907;SDS011;7545;52.092;7.006;2024-01-30T04:09:08;9.20;;;6.50;;
14907;SDS011;7545;52.092;7.006;2024-01-30T04:11:34;11.00;;;6.47;;
14907;SDS011;7545;52.092;7.006;2024-01-30T04:14:00;10.37;;;7.43;;
14907;SDS011;7545;52.092;7.006;2024-01-30T04:16:25;8.93;;;5.90;;
14907;SDS011;7545;52.092;7.006;2024-01-30T04:18:51;7.23;;;5.70;;
14907;SDS011;7545;52.092;7.006;2024-01-30T04:21:17;10.57;;;6.27;;
14907;SDS011;7545;52.092;7.006;2024-01-30T04:23:42;8.67;;;6.03;;
14907;SDS011;7545;52.092;7.006;2024-01-30T04:26:08;8.37;;;5.43;;
14907;SDS011;7545;52.092;7.006;2024-01-30T04:28:34;7.43;;;6.13;;
14907;SDS011;7545;52.092;7.006;2024-01-30T04:30:59;9.97;;;6.00;;
14907;SDS011;7545;52.092;7.006;2024-01-30T04:33:25;8.93;;;6.13;;
14907;SDS011;7545;52.092;7.006;2024-01-30T04:35:50;8.83;;;6.47;;
14907;SDS011;7545;52.092;7.006;2024-01-30T04:38:17;8.70;;;6.50;;
14907;SDS011;7545;52.092;7.006;2024-01-30T04:40:42;9.17;;;6.00;;
14907;SDS011;7545;52.092;7.006;2024-01-30T04:43:08;11.03;;;6.77;;
14907;SDS011;7545;52.092;7.006;2024-01-30T04:45:34;10.27;;;6.20;;
14907;SDS011;7545;52.092;7.006;2024-01-30T04:47:59;8.87;;;6.27;;
14907;SDS011;7545;52.092;7.006;2024-01-30T04:50:25;9.23;;;6.37;;
14907;SDS011;7545;52.092;7.006;2024-01-30T04:52:51;10.43;;;6.30;;
14907;SDS011;7545;52.092;7.006;2024-01-30T04:55:17;9.83;;;5.43;;
14907;SDS011;7545;52.092;7.006;2024-01-30T04:57:43;9.67;;;5.87;;
14907;SDS011;7545;52.092;7.006;2024-01-30T05:00:08;7.77;;;5.73;;
14907;SDS011;7545;52.092;7.006;2024-01-30T05:02:34;9.03;;;5.83;;
14907;SDS011;7545;52.092;7.006;2024-01-30T05:05:00;13.23;;;6.17;;
14907;SDS011;7545;52.092;7.006;2024-01-30T05:07:25;11.30;;;6.60;;
14907;SDS011;7545;52.092;7.006;2024-01-30T05:09:51;11.27;;;6.93;;
14907;SDS011;7545;52.092;7.006;2024-01-30T05:12:17;9.60;;;5.13;;
14907;SDS011;7545;52.092;7.006;2024-01-30T05:14:42;8.30;;;6.00;;
14907;SDS011;7545;52.092;7.006;2024-01-30T05:17:08;8.00;;;5.77;;
14907;SDS011;7545;52.092;7.006;2024-01-30T05:19:35;9.23;;;6.50;;
14907;SDS011;7545;52.092;7.006;2024-01-30T05:22:01;7.70;;;5.45;;
14907;SDS011;7545;52.092;7.006;2024-01-30T05:24:26;10.57;;;6.13;;
14907;SDS011;7545;52.092;7.006;2024-01-30T05:26:52;8.70;;;5.67;;
14907;SDS011;7545;52.092;7.006;2024-01-30T05:29:17;8.73;;;5.80;;
14907;SDS011;7545;52.092;7.006;2024-01-30T05:31:43;11.97;;;6.60;;
14907;SDS011;7545;52.092;7.006;2024-01-30T05:34:08;9.80;;;5.80;;
14907;SDS011;7545;52.092;7.006;2024-01-30T05:36:34;12.47;;;6.27;;
14907;SDS011;7545;52.092;7.006;2024-01-30T05:39:00;6.97;;;4.97;;
14907;SDS011;7545;52.092;7.006;2024-01-30T05:41:26;8.23;;;6.10;;
14907;SDS011;7545;52.092;7.006;2024-01-30T05:43:51;8.83;;;6.10;;
14907;SDS011;7545;52.092;7.006;2024-01-30T05:46:18;12.10;;;6.77;;
14907;SDS011;7545;52.092;7.006;2024-01-30T05:48:43;9.60;;;6.60;;
14907;SDS011;7545;52.092;7.006;2024-01-30T05:51:09;7.07;;;5.23;;
14907;SDS011;7545;52.092;7.006;2024-01-30T05:53:34;8.70;;;5.57;;
14907;SDS011;7545;52.092;7.006;2024-01-30T05:56:01;7.27;;;5.33;;
14907;SDS011;7545;52.092;7.006;2024-01-30T05:58:27;8.97;;;6.00;;
14907;SDS011;7545;52.092;7.006;2024-01-30T06:00:53;9.97;;;5.97;;
14907;SDS011;7545;52.092;7.006;2024-01-30T06:03:18;8.87;;;5.03;;
14907;SDS011;7545;52.092;7.006;2024-01-30T06:05:44;8.20;;;5.43;;
14907;SDS011;7545;52.092;7.006;2024-01-30T06:08:09;8.50;;;6.53;;
14907;SDS011;7545;52.092;7.006;2024-01-30T06:10:35;7.93;;;6.70;;
14907;SDS011;7545;52.092;7.006;2024-01-30T06:13:00;8.37;;;6.47;;
14907;SDS011;7545;52.092;7.006;2024-01-30T06:15:26;9.63;;;7.10;;
14907;SDS011;7545;52.092;7.006;2024-01-30T06:17:54;9.23;;;6.97;;
14907;SDS011;7545;52.092;7.006;2024-01-30T06:20:20;11.03;;;6.67;;
14907;SDS011;7545;52.092;7.006;2024-01-30T06:22:45;7.53;;;6.03;;
14907;SDS011;7545;52.092;7.006;2024-01-30T06:25:11;12.23;;;6.00;;
14907;SDS011;7545;52.092;7.006;2024-01-30T06:27:37;9.30;;;6.00;;
14907;SDS011;7545;52.092;7.006;2024-01-30T06:30:03;9.73;;;6.03;;
14907;SDS011;7545;52.092;7.006;2024-01-30T06:32:29;9.47;;;5.30;;
14907;SDS011;7545;52.092;7.006;2024-01-30T06:34:59;9.10;;;5.33;;
14907;SDS011;7545;52.092;7.006;2024-01-30T06:37:27;10.03;;;5.53;;
14907;SDS011;7545;52.092;7.006;2024-01-30T06:39:53;7.53;;;4.73;;
14907;SDS011;7545;52.092;7.006;2024-01-30T06:42:19;10.47;;;6.13;;
14907;SDS011;7545;52.092;7.006;2024-01-30T06:44:44;7.40;;;5.00;;
14907;SDS011;7545;52.092;7.006;2024-01-30T06:47:10;8.50;;;5.80;;
14907;SDS011;7545;52.092;7.006;2024-01-30T06:49:36;7.80;;;5.30;;
14907;SDS011;7545;52.092;7.006;2024-01-30T06:52:07;7.33;;;5.07;;
14907;SDS011;7545;52.092;7.006;2024-01-30T06:54:33;8.03;;;5.27;;
14907;SDS011;7545;52.092;7.006;2024-01-30T06:56:59;8.17;;;5.23;;
14907;SDS011;7545;52.092;7.006;2024-01-30T06:59:25;7.60;;;4.70;;
14907;SDS011;7545;52.092;7.006;2024-01-30T07:01:50;7.73;;;5.07;;
14907;SDS011;7545;52.092;7.006;2024-01-30T07:04:16;11.30;;;5.00;;
14907;SDS011;7545;52.092;7.006;2024-01-30T07:06:43;7.63;;;4.80;;
14907;SDS011;7545;52.092;7.006;2024-01-30T07:09:08;7.90;;;4.57;;
14907;SDS011;7545;52.092;7.006;2024-01-30T07:11:34;9.33;;;5.60;;
14907;SDS011;7545;52.092;7.006;2024-01-30T07:13:59;6.95;;;4.57;;
14907;SDS011;7545;52.092;7.006;2024-01-30T07:16:25;7.33;;;4.83;;
14907;SDS011;7545;52.092;7.006;2024-01-30T07:18:51;7.27;;;4.77;;
14907;SDS011;7545;52.092;7.006;2024-01-30T07:21:16;6.70;;;4.57;;
14907;SDS011;7545;52.092;7.006;2024-01-30T07:23:42;12.93;;;5.03;;
14907;SDS011;7545;52.092;7.006;2024-01-30T07:26:08;9.73;;;4.63;;
14907;SDS011;7545;52.092;7.006;2024-01-30T07:28:34;8.00;;;5.67;;
14907;SDS011;7545;52.092;7.006;2024-01-30T07:31:00;7.73;;;4.90;;
14907;SDS011;7545;52.092;7.006;2024-01-30T07:33:26;9.83;;;5.13;;
14907;SDS011;7545;52.092;7.006;2024-01-30T07:35:52;6.70;;;4.43;;
14907;SDS011;7545;52.092;7.006;2024-01-30T07:38:18;6.90;;;5.00;;
14907;SDS011;7545;52.092;7.006;2024-01-30T07:40:44;8.63;;;4.90;;
14907;SDS011;7545;52.092;7.006;2024-01-30T07:43:09;7.67;;;4.97;;
14907;SDS011;7545;52.092;7.006;2024-01-30T07:45:35;8.70;;;4.73;;
14907;SDS011;7545;52.092;7.006;2024-01-30T07:48:02;7.73;;;5.20;;
14907;SDS011;7545;52.092;7.006;2024-01-30T07:50:28;10.17;;;5.60;;
14907;SDS011;7545;52.092;7.006;2024-01-30T07:52:55;6.17;;;4.33;;
14907;SDS011;7545;52.092;7.006;2024-01-30T07:55:21;8.52;;;5.13;;
14907;SDS011;7545;52.092;7.006;2024-01-30T08:01:27;8.03;;;4.87;;
14907;SDS011;7545;52.092;7.006;2024-01-30T08:03:53;7.03;;;5.13;;
14907;SDS011;7545;52.092;7.006;2024-01-30T08:06:18;7.53;;;5.27;;
14907;SDS011;7545;52.092;7.006;2024-01-30T08:08:44;9.03;;;4.80;;
14907;SDS011;7545;52.092;7.006;2024-01-30T08:11:10;7.57;;;5.03;;
14907;SDS011;7545;52.092;7.006;2024-01-30T08:13:35;8.50;;;4.80;;
14907;SDS011;7545;52.092;7.006;2024-01-30T08:16:01;6.60;;;4.80;;
14907;SDS011;7545;52.092;7.006;2024-01-30T08:18:26;6.83;;;4.30;;
14907;SDS011;7545;52.092;7.006;2024-01-30T08:20:52;8.10;;;4.77;;
14907;SDS011;7545;52.092;7.006;2024-01-30T08:23:17;4.97;;;4.33;;
14907;SDS011;7545;52.092;7.006;2024-01-30T08:25:43;6.88;;;4.53;;
14907;SDS011;7545;52.092;7.006;2024-01-30T08:28:08;7.23;;;4.77;;
14907;SDS011;7545;52.092;7.006;2024-01-30T08:30:34;6.03;;;4.22;;
14907;SDS011;7545;52.092;7.006;2024-01-30T08:33:00;6.80;;;4.40;;
14907;SDS011;7545;52.092;7.006;2024-01-30T08:35:26;10.23;;;5.50;;
14907;SDS011;7545;52.092;7.006;2024-01-30T08:37:51;8.80;;;4.53;;
14907;SDS011;7545;52.092;7.006;2024-01-30T08:40:17;10.63;;;5.23;;
14907;SDS011;7545;52.092;7.006;2024-01-30T08:42:42;7.07;;;4.63;;
14907;SDS011;7545;52.092;7.006;2024-01-30T08:45:08;7.00;;;4.55;;
14907;SDS011;7545;52.092;7.006;2024-01-30T08:47:34;7.10;;;4.72;;
14907;SDS011;7545;52.092;7.006;2024-01-30T08:50:00;9.30;;;5.37;;
14907;SDS011;7545;52.092;7.006;2024-01-30T08:52:25;5.73;;;5.03;;
14907;SDS011;7545;52.092;7.006;2024-01-30T08:54:51;5.93;;;4.50;;
14907;SDS011;7545;52.092;7.006;2024-01-30T08:57:17;8.17;;;4.47;;
14907;SDS011;7545;52.092;7.006;2024-01-30T08:59:42;7.63;;;4.70;;
14907;SDS011;7545;52.092;7.006;2024-01-30T09:02:10;8.90;;;5.27;;
14907;SDS011;7545;52.092;7.006;2024-01-30T09:04:38;8.10;;;4.77;;
14907;SDS011;7545;52.092;7.006;2024-01-30T09:07:03;7.87;;;4.63;;
14907;SDS011;7545;52.092;7.006;2024-01-30T09:09:33;10.00;;;4.40;;
14907;SDS011;7545;52.092;7.006;2024-01-30T09:11:59;6.63;;;4.00;;
14907;SDS011;7545;52.092;7.006;2024-01-30T09:14:29;8.15;;;5.15;;
14907;SDS011;7545;52.092;7.006;2024-01-30T09:16:55;11.02;;;4.85;;
14907;SDS011;7545;52.092;7.006;2024-01-30T09:19:21;10.02;;;4.97;;
14907;SDS011;7545;52.092;7.006;2024-01-30T09:21:47;9.05;;;4.80;;
14907;SDS011;7545;52.092;7.006;2024-01-30T09:24:12;7.68;;;5.60;;
14907;SDS011;7545;52.092;7.006;2024-01-30T09:26:38;7.95;;;4.70;;
14907;SDS011;7545;52.092;7.006;2024-01-30T09:29:03;7.43;;;4.50;;
14907;SDS011;7545;52.092;7.006;2024-01-30T09:31:29;10.82;;;5.30;;
14907;SDS011;7545;52.092;7.006;2024-01-30T09:33:54;8.82;;;5.30;;
14907;SDS011;7545;52.092;7.006;2024-01-30T09:36:20;8.82;;;4.20;;
14907;SDS011;7545;52.092;7.006;2024-01-30T09:38:46;7.53;;;5.03;;
14907;SDS011;7545;52.092;7.006;2024-01-30T09:41:11;8.75;;;4.50;;
14907;SDS011;7545;52.092;7.006;2024-01-30T09:43:38;5.35;;;4.43;;
14907;SDS011;7545;52.092;7.006;2024-01-30T09:46:08;7.85;;;4.75;;
14907;SDS011;7545;52.092;7.006;2024-01-30T09:48:38;6.78;;;5.20;;
14907;SDS011;7545;52.092;7.006;2024-01-30T09:51:06;6.93;;;5.03;;
14907;SDS011;7545;52.092;7.006;2024-01-30T09:53:33;8.60;;;4.95;;
14907;SDS011;7545;52.092;7.006;2024-01-30T09:55:58;7.03;;;4.60;;
14907;SDS011;7545;52.092;7.006;2024-01-30T09:58:26;8.60;;;4.80;;
14907;SDS011;7545;52.092;7.006;2024-01-30T10:00:51;8.75;;;5.63;;
14907;SDS011;7545;52.092;7.006;2024-01-30T10:03:18;7.53;;;5.45;;
14907;SDS011;7545;52.092;7.006;2024-01-30T10:05:45;6.30;;;5.10;;
14907;SDS011;7545;52.092;7.006;2024-01-30T10:08:16;7.15;;;5.40;;
14907;SDS011;7545;52.092;7.006;2024-01-30T10:10:45;9.13;;;5.18;;
14907;SDS011;7545;52.092;7.006;2024-01-30T10:13:14;11.75;;;5.63;;
14907;SDS011;7545;52.092;7.006;2024-01-30T10:15:40;9.88;;;4.82;;
14907;SDS011;7545;52.092;7.006;2024-01-30T10:18:06;9.10;;;6.13;;
14907;SDS011;7545;52.092;7.006;2024-01-30T10:20:33;6.63;;;5.10;;
14907;SDS011;7545;52.092;7.006;2024-01-30T10:22:59;5.82;;;4.65;;
14907;SDS011;7545;52.092;7.006;2024-01-30T10:25:28;8.77;;;5.20;;
14907;SDS011;7545;52.092;7.006;2024-01-30T10:27:53;6.75;;;4.70;;
14907;SDS011;7545;52.092;7.006;2024-01-30T10:30:23;11.57;;;5.55;;
14907;SDS011;7545;52.092;7.006;2024-01-30T10:32:49;7.13;;;4.75;;
14907;SDS011;7545;52.092;7.006;2024-01-30T10:35:15;6.85;;;5.45;;
14907;SDS011;7545;52.092;7.006;2024-01-30T10:37:44;8.50;;;4.88;;
14907;SDS011;7545;52.092;7.006;2024-01-30T10:40:12;6.55;;;5.03;;
14907;SDS011;7545;52.092;7.006;2024-01-30T10:42:40;9.65;;;6.05;;
14907;SDS011;7545;52.092;7.006;2024-01-30T10:45:08;11.73;;;5.78;;
14907;SDS011;7545;52.092;7.006;2024-01-30T10:47:37;7.80;;;5.22;;
14907;SDS011;7545;52.092;7.006;2024-01-30T10:50:06;8.65;;;5.22;;
14907;SDS011;7545;52.092;7.006;2024-01-30T10:52:33;6.82;;;5.25;;
14907;SDS011;7545;52.092;7.006;2024-01-30T10:54:59;7.60;;;5.05;;
14907;SDS011;7545;52.092;7.006;2024-01-30T10:57:26;8.68;;;5.15;;
14907;SDS011;7545;52.092;7.006;2024-01-30T10:59:56;7.80;;;5.50;;
14907;SDS011;7545;52.092;7.006;2024-01-30T11:02:23;6.55;;;4.45;;
14907;SDS011;7545;52.092;7.006;2024-01-30T11:04:49;7.63;;;5.00;;
14907;SDS011;7545;52.092;7.006;2024-01-30T11:07:23;6.80;;;4.72;;
14907;SDS011;7545;52.092;7.006;2024-01-30T11:09:51;6.30;;;5.03;;
14907;SDS011;7545;52.092;7.006;2024-01-30T11:12:23;7.10;;;5.40;;
14907;SDS011;7545;52.092;7.006;2024-01-30T11:14:50;7.97;;;4.38;;
14907;SDS011;7545;52.092;7.006;2024-01-30T11:17:39;9.75;;;5.22;;
14907;SDS011;7545;52.092;7.006;2024-01-30T11:20:20;12.55;;;4.95;;
14907;SDS011;7545;52.092;7.006;2024-01-30T11:22:48;6.78;;;4.53;;
14907;SDS011;7545;52.092;7.006;2024-01-30T11:25:16;9.10;;;5.15;;
14907;SDS011;7545;52.092;7.006;2024-01-30T11:27:43;9.88;;;5.43;;
14907;SDS011;7545;52.092;7.006;2024-01-30T11:30:09;6.43;;;4.90;;
14907;SDS011;7545;52.092;7.006;2024-01-30T11:32:35;8.25;;;4.65;;
14907;SDS011;7545;52.092;7.006;2024-01-30T11:35:03;10.32;;;5.00;;
14907;SDS011;7545;52.092;7.006;2024-01-30T11:37:31;6.75;;;5.10;;
14907;SDS011;7545;52.092;7.006;2024-01-30T11:39:57;9.85;;;5.72;;
14907;SDS011;7545;52.092;7.006;2024-01-30T11:42:24;8.50;;;4.53;;
14907;SDS011;7545;52.092;7.006;2024-01-30T11:44:53;10.50;;;5.65;;
14907;SDS011;7545;52.092;7.006;2024-01-30T11:47:19;7.15;;;4.85;;
14907;SDS011;7545;52.092;7.006;2024-01-30T11:49:44;8.57;;;4.82;;
14907;SDS011;7545;52.092;7.006;2024-01-30T11:52:10;7.30;;;4.90;;
14907;SDS011;7545;52.092;7.006;2024-01-30T11:54:36;9.68;;;5.32;;
14907;SDS011;7545;52.092;7.006;2024-01-30T11:57:05;10.68;;;5.15;;
14907;SDS011;7545;52.092;7.006;2024-01-30T11:59:30;7.03;;;4.93;;
14907;SDS011;7545;52.092;7.006;2024-01-30T12:01:56;14.00;;;5.32;;
14907;SDS011;7545;52.092;7.006;2024-01-30T12:04:21;6.30;;;4.97;;
14907;SDS011;7545;52.092;7.006;2024-01-30T12:06:50;7.93;;;4.50;;
14907;SDS011;7545;52.092;7.006;2024-01-30T12:09:16;7.85;;;5.05;;
14907;SDS011;7545;52.092;7.006;2024-01-30T12:11:45;7.95;;;4.70;;
14907;SDS011;7545;52.092;7.006;2024-01-30T12:14:12;5.85;;;4.47;;
14907;SDS011;7545;52.092;7.006;2024-01-30T12:16:38;7.35;;;4.90;;
14907;SDS011;7545;52.092;7.006;2024-01-30T12:19:03;7.10;;;4.97;;
14907;SDS011;7545;52.092;7.006;2024-01-30T12:21:29;11.05;;;5.07;;
14907;SDS011;7545;52.092;7.006;2024-01-30T12:23:56;7.15;;;4.45;;
14907;SDS011;7545;52.092;7.006;2024-01-30T12:26:23;7.15;;;4.90;;
14907;SDS011;7545;52.092;7.006;2024-01-30T12:28:50;8.07;;;5.30;;
14907;SDS011;7545;52.092;7.006;2024-01-30T12:31:18;10.90;;;5.18;;
14907;SDS011;7545;52.092;7.006;2024-01-30T12:33:51;6.35;;;4.22;;
14907;SDS011;7545;52.092;7.006;2024-01-30T12:36:17;7.18;;;4.75;;
14907;SDS011;7545;52.092;7.006;2024-01-30T12:38:43;7.50;;;4.90;;
14907;SDS011;7545;52.092;7.006;2024-01-30T12:41:08;6.53;;;5.22;;
14907;SDS011;7545;52.092;7.006;2024-01-30T12:43:35;7.18;;;5.50;;
14907;SDS011;7545;52.092;7.006;2024-01-30T12:46:01;8.70;;;5.15;;
14907;SDS011;7545;52.092;7.006;2024-01-30T12:48:27;10.23;;;5.30;;
14907;SDS011;7545;52.092;7.006;2024-01-30T12:50:54;9.85;;;5.53;;
14907;SDS011;7545;52.092;7.006;2024-01-30T12:53:21;7.90;;;5.28;;
14907;SDS011;7545;52.092;7.006;2024-01-30T12:55:46;7.07;;;4.97;;
14907;SDS011;7545;52.092;7.006;2024-01-30T12:58:12;8.00;;;4.95;;
14907;SDS011;7545;52.092;7.006;2024-01-30T13:00:38;10.23;;;5.10;;
14907;SDS011;7545;52.092;7.006;2024-01-30T13:03:03;11.45;;;4.90;;
14907;SDS011;7545;52.092;7.006;2024-01-30T13:05:29;7.65;;;5.20;;
14907;SDS011;7545;52.092;7.006;2024-01-30T13:07:55;9.50;;;6.00;;
14907;SDS011;7545;52.092;7.006;2024-01-30T13:10:22;7.70;;;4.65;;
14907;SDS011;7545;52.092;7.006;2024-01-30T13:12:48;7.60;;;4.97;;
14907;SDS011;7545;52.092;7.006;2024-01-30T13:15:13;7.55;;;4.75;;
14907;SDS011;7545;52.092;7.006;2024-01-30T13:17:39;8.45;;;5.30;;
14907;SDS011;7545;52.092;7.006;2024-01-30T13:20:05;6.60;;;5.43;;
14907;SDS011;7545;52.092;7.006;2024-01-30T13:22:33;5.32;;;4.68;;
14907;SDS011;7545;52.092;7.006;2024-01-30T13:24:59;7.78;;;5.30;;
14907;SDS011;7545;52.092;7.006;2024-01-30T13:27:24;8.73;;;4.63;;
14907;SDS011;7545;52.092;7.006;2024-01-30T13:29:50;10.65;;;5.50;;
14907;SDS011;7545;52.092;7.006;2024-01-30T13:32:15;8.70;;;5.03;;
14907;SDS011;7545;52.092;7.006;2024-01-30T13:34:41;5.60;;;4.68;;
14907;SDS011;7545;52.092;7.006;2024-01-30T13:37:08;6.88;;;4.38;;
14907;SDS011;7545;52.092;7.006;2024-01-30T13:39:33;9.73;;;5.28;;
14907;SDS011;7545;52.092;7.006;2024-01-30T13:41:59;6.95;;;5.15;;
14907;SDS011;7545;52.092;7.006;2024-01-30T13:44:24;8.52;;;5.53;;
14907;SDS011;7545;52.092;7.006;2024-01-30T13:46:50;8.90;;;5.63;;
14907;SDS011;7545;52.092;7.006;2024-01-30T13:49:16;10.63;;;5.03;;
14907;SDS011;7545;52.092;7.006;2024-01-30T13:51:41;10.70;;;5.65;;
14907;SDS011;7545;52.092;7.006;2024-01-30T13:54:07;7.93;;;5.60;;
14907;SDS011;7545;52.092;7.006;2024-01-30T13:56:33;9.77;;;5.70;;
14907;SDS011;7545;52.092;7.006;2024-01-30T13:58:59;13.38;;;6.43;;
14907;SDS011;7545;52.092;7.006;2024-01-30T14:01:26;6.32;;;4.93;;
14907;SDS011;7545;52.092;7.006;2024-01-30T14:03:51;8.38;;;5.45;;
14907;SDS011;7545;52.092;7.006;2024-01-30T14:06:17;7.68;;;4.78;;
14907;SDS011;7545;52.092;7.006;2024-01-30T14:08:44;8.10;;;6.05;;
14907;SDS011;7545;52.092;7.006;2024-01-30T14:11:09;7.90;;;4.93;;
14907;SDS011;7545;52.092;7.006;2024-01-30T14:13:35;9.43;;;4.95;;
14907;SDS011;7545;52.092;7.006;2024-01-30T14:16:00;11.00;;;6.30;;
14907;SDS011;7545;52.092;7.006;2024-01-30T14:18:26;7.60;;;4.78;;
14907;SDS011;7545;52.092;7.006;2024-01-30T14:20:52;7.40;;;5.28;;
14907;SDS011;7545;52.092;7.006;2024-01-30T14:23:17;8.73;;;4.82;;
14907;SDS011;7545;52.092;7.006;2024-01-30T14:25:43;5.72;;;4.65;;
14907;SDS011;7545;52.092;7.006;2024-01-30T14:28:09;8.55;;;5.25;;
14907;SDS011;7545;52.092;7.006;2024-01-30T14:30:35;8.43;;;4.38;;
14907;SDS011;7545;52.092;7.006;2024-01-30T14:33:01;7.13;;;4.05;;
14907;SDS011;7545;52.092;7.006;2024-01-30T14:35:26;5.85;;;4.03;;
14907;SDS011;7545;52.092;7.006;2024-01-30T14:37:52;6.25;;;2.95;;
14907;SDS011;7545;52.092;7.006;2024-01-30T14:40:18;4.93;;;2.75;;
14907;SDS011;7545;52.092;7.006;2024-01-30T14:42:44;5.35;;;2.60;;
14907;SDS011;7545;52.092;7.006;2024-01-30T14:45:10;2.88;;;2.13;;
14907;SDS011;7545;52.092;7.006;2024-01-30T14:47:36;2.88;;;2.17;;
14907;SDS011;7545;52.092;7.006;2024-01-30T14:50:02;5.10;;;2.33;;
14907;SDS011;7545;52.092;7.006;2024-01-30T14:52:30;8.13;;;2.63;;
14907;SDS011;7545;52.092;7.006;2024-01-30T14:54:56;6.25;;;1.95;;